La Canada, California
Current Conditions -  °F | °C
As of 1:53 PM on Friday 19 Dec 2014 (Local Time) from KBUR Reporting Station
Clear Clear  
Wind Chill: 63°   Ceiling: Unl
Heat Index: 63°   Visibility: 10mi
Dew Point: 44°   Wind: 3mph
Humidity: 50%   Direction: 230°SW
Pressure: 30.15"   Gusts: NA
Location:  34.2086°N, 118.201°W
Report Text: KBUR 192153Z 23003KT 10SM CLR 17/07 A3015 RMK AO2 SLP203 T01720067
Loading
Personal Weather Stations






























Interactive Weather Map New forecast layout! Learn more

10-Day Weather Forecast

Advertisements
Track Severe Weather on mobile